createdAt,value
2022-12-15T00:01:34.119Z,5.25
2022-12-15T00:04:25.201Z,5.37
2022-12-15T00:07:15.420Z,4.08
2022-12-15T00:10:05.963Z,4.55
2022-12-15T00:12:56.301Z,4.78
2022-12-15T00:15:46.860Z,5.53
2022-12-15T00:18:37.400Z,6.03
2022-12-15T00:21:27.631Z,6.17
2022-12-15T00:24:17.928Z,5.37
2022-12-15T00:27:08.462Z,7.55
2022-12-15T00:29:59.471Z,5.20
2022-12-15T00:32:52.052Z,6.05
2022-12-15T00:35:42.507Z,5.78
2022-12-15T00:38:34.135Z,6.50
2022-12-15T00:41:07.533Z,6.17
2022-12-15T00:43:40.712Z,4.85
2022-12-15T00:46:32.118Z,4.75
2022-12-15T00:49:06.615Z,6.28
2022-12-15T00:51:57.217Z,7.37
2022-12-15T00:54:47.820Z,5.83
2022-12-15T00:57:38.157Z,6.20
2022-12-15T01:00:31.295Z,6.72
2022-12-15T01:03:22.977Z,6.95
2022-12-15T01:06:13.772Z,7.30
2022-12-15T01:09:04.708Z,6.67
2022-12-15T01:11:55.205Z,7.45
2022-12-15T01:14:46.640Z,6.05
2022-12-15T01:17:38.108Z,6.90
2022-12-15T01:20:20.119Z,6.75
2022-12-15T01:22:55.189Z,5.85
2022-12-15T01:25:29.224Z,7.08
2022-12-15T01:28:02.190Z,7.45
2022-12-15T01:30:35.315Z,6.90
2022-12-15T01:33:08.418Z,8.40
2022-12-15T01:35:42.093Z,6.50
2022-12-15T01:38:15.224Z,6.55
2022-12-15T01:40:55.684Z,6.35
2022-12-15T01:43:31.868Z,6.10
2022-12-15T01:46:08.017Z,7.45
2022-12-15T01:48:48.194Z,7.15
2022-12-15T01:51:29.387Z,7.03
2022-12-15T01:54:05.448Z,7.40
2022-12-15T01:56:41.514Z,5.35
2022-12-15T01:59:17.505Z,6.05
2022-12-15T02:01:50.886Z,6.22
2022-12-15T02:04:26.014Z,5.97
2022-12-15T02:06:59.099Z,6.62
2022-12-15T02:09:32.881Z,7.95
2022-12-15T02:12:10.745Z,5.67
2022-12-15T02:14:55.659Z,6.67
2022-12-15T02:17:35.471Z,6.10
2022-12-15T02:20:39.112Z,6.67
2022-12-15T02:26:40.688Z,7.33
2022-12-15T02:29:21.660Z,7.40
2022-12-15T02:31:57.981Z,8.08
2022-12-15T02:34:34.305Z,6.95
2022-12-15T02:37:10.022Z,6.50
2022-12-15T02:39:43.109Z,7.90
2022-12-15T02:42:17.162Z,5.25
2022-12-15T02:44:53.263Z,8.58
2022-12-15T02:47:31.819Z,4.35
2022-12-15T02:50:34.243Z,7.28
2022-12-15T02:53:15.117Z,8.15
2022-12-15T02:55:51.552Z,7.37
2022-12-15T02:58:29.169Z,7.03
2022-12-15T03:03:37.574Z,7.45
2022-12-15T03:06:12.175Z,6.20
2022-12-15T03:08:45.968Z,7.20
2022-12-15T03:11:23.251Z,7.25
2022-12-15T03:13:56.859Z,5.87
2022-12-15T03:16:32.224Z,7.72
2022-12-15T03:19:08.708Z,7.53
2022-12-15T03:21:43.943Z,7.33
2022-12-15T03:24:18.710Z,7.05
2022-12-15T03:26:55.207Z,6.50
2022-12-15T03:29:30.965Z,6.65
2022-12-15T03:32:04.208Z,6.53
2022-12-15T03:34:40.092Z,7.75
2022-12-15T03:37:22.098Z,8.50
2022-12-15T03:39:56.445Z,7.47
2022-12-15T03:42:50.550Z,6.83
2022-12-15T03:45:25.668Z,6.08
2022-12-15T03:47:59.748Z,8.63
2022-12-15T03:50:33.005Z,5.72
2022-12-15T03:53:07.257Z,6.45
2022-12-15T03:55:40.430Z,6.05
2022-12-15T03:58:13.480Z,8.30
2022-12-15T04:00:47.065Z,7.08
2022-12-15T04:03:20.266Z,7.03
2022-12-15T04:05:53.865Z,6.80
2022-12-15T04:08:26.977Z,7.92
2022-12-15T04:11:00.772Z,7.35
2022-12-15T04:13:34.362Z,6.37
2022-12-15T04:16:08.771Z,6.53
2022-12-15T04:18:41.800Z,6.25
2022-12-15T04:21:16.901Z,8.80
2022-12-15T04:24:07.725Z,6.80
2022-12-15T04:26:58.533Z,8.00
2022-12-15T04:29:49.465Z,7.75
2022-12-15T04:32:39.967Z,8.05
2022-12-15T04:35:31.254Z,8.80
2022-12-15T04:38:23.744Z,8.35
2022-12-15T04:41:14.434Z,9.38
2022-12-15T04:44:04.832Z,11.18
2022-12-15T04:46:55.327Z,6.17
2022-12-15T04:49:45.541Z,6.62
2022-12-15T04:52:36.164Z,6.85
2022-12-15T04:55:27.631Z,4.78
2022-12-15T04:58:19.308Z,6.75
2022-12-15T05:01:10.474Z,6.85
2022-12-15T05:04:00.833Z,5.87
2022-12-15T05:06:51.644Z,7.00
2022-12-15T05:09:41.882Z,5.47
2022-12-15T05:12:32.206Z,6.58
2022-12-15T05:15:22.873Z,4.85
2022-12-15T05:18:13.680Z,5.97
2022-12-15T05:21:04.151Z,3.83
2022-12-15T05:23:54.650Z,7.05
2022-12-15T05:26:50.697Z,4.87
2022-12-15T05:29:36.916Z,5.03
2022-12-15T05:32:10.428Z,5.42
2022-12-15T05:34:43.304Z,8.25
2022-12-15T05:37:16.251Z,7.22
2022-12-15T05:39:49.124Z,7.92
2022-12-15T05:42:22.012Z,4.30
2022-12-15T05:44:54.889Z,5.30
2022-12-15T05:47:28.022Z,5.58
2022-12-15T05:50:01.055Z,5.58
2022-12-15T05:52:34.190Z,7.03
2022-12-15T05:55:08.763Z,6.42
2022-12-15T05:57:41.675Z,6.30
2022-12-15T06:00:16.176Z,7.65
2022-12-15T06:02:50.069Z,4.75
2022-12-15T06:05:23.802Z,7.25
2022-12-15T06:07:56.728Z,7.60
2022-12-15T06:10:29.961Z,6.12
2022-12-15T06:13:03.003Z,5.78
2022-12-15T06:15:35.882Z,7.00
2022-12-15T06:18:09.029Z,6.45
2022-12-15T06:20:42.099Z,4.45
2022-12-15T06:23:15.248Z,6.28
2022-12-15T06:25:48.363Z,6.42
2022-12-15T06:28:23.494Z,5.47
2022-12-15T06:30:57.412Z,4.67
2022-12-15T07:16:23.159Z,8.38
2022-12-15T07:18:59.057Z,9.08
2022-12-15T07:21:32.016Z,7.92
2022-12-15T07:24:05.624Z,7.95
2022-12-15T07:26:38.791Z,7.15
2022-12-15T07:29:14.884Z,6.35
2022-12-15T07:31:47.440Z,10.03
2022-12-15T07:34:20.569Z,7.45
2022-12-15T07:36:53.450Z,5.65
2022-12-15T07:39:27.497Z,7.70
2022-12-15T07:42:00.454Z,9.45
2022-12-15T07:44:33.405Z,11.85
2022-12-15T07:47:06.800Z,8.73
2022-12-15T07:49:39.791Z,10.03
2022-12-15T07:52:14.210Z,11.53
2022-12-15T07:54:47.134Z,10.93
2022-12-15T07:57:20.681Z,7.67
2022-12-15T07:59:53.810Z,9.28
2022-12-15T08:02:27.058Z,12.07
2022-12-15T08:05:00.174Z,10.10
2022-12-15T08:07:33.650Z,10.20
2022-12-15T08:10:08.108Z,10.28
2022-12-15T08:12:41.059Z,9.93
2022-12-15T08:15:15.336Z,9.63
2022-12-15T08:17:48.204Z,6.78
2022-12-15T08:20:21.030Z,9.23
2022-12-15T08:22:55.016Z,10.75
2022-12-15T08:25:29.639Z,10.25
2022-12-15T08:28:02.569Z,12.13
2022-12-15T08:30:36.924Z,9.18
2022-12-15T08:33:09.798Z,11.05
2022-12-15T08:35:56.146Z,9.30
2022-12-15T08:38:18.427Z,10.70
2022-12-15T08:40:51.386Z,10.08
2022-12-15T08:43:24.490Z,9.05
2022-12-15T08:45:57.851Z,13.32
2022-12-15T08:48:30.894Z,7.75
2022-12-15T08:51:04.397Z,10.50
2022-12-15T08:53:37.361Z,9.80
2022-12-15T08:56:13.193Z,11.73
2022-12-15T08:58:46.659Z,9.80
2022-12-15T09:01:23.735Z,8.73
2022-12-15T09:03:58.177Z,8.93
2022-12-15T09:06:33.545Z,9.33
2022-12-15T09:09:09.373Z,8.18
2022-12-15T09:11:42.571Z,12.60
2022-12-15T09:14:16.160Z,10.13
2022-12-15T09:16:50.586Z,10.30
2022-12-15T09:19:24.027Z,8.93
2022-12-15T09:21:57.179Z,7.70
2022-12-15T09:24:35.096Z,7.17
2022-12-15T09:27:05.757Z,7.65
2022-12-15T09:29:39.413Z,7.65
2022-12-15T09:32:14.599Z,6.97
2022-12-15T09:34:47.682Z,7.00
2022-12-15T09:37:22.606Z,6.92
2022-12-15T09:39:55.685Z,5.80
2022-12-15T09:42:32.025Z,8.28
2022-12-15T09:45:08.851Z,7.10
2022-12-15T09:47:46.897Z,8.17
2022-12-15T09:50:23.269Z,5.17
2022-12-15T09:52:59.225Z,7.62
2022-12-15T09:55:33.944Z,6.90
2022-12-15T09:58:11.275Z,8.18
2022-12-15T10:00:52.199Z,8.15
2022-12-15T10:03:38.697Z,7.85
2022-12-15T10:06:18.336Z,5.90
2022-12-15T10:08:52.627Z,5.58
2022-12-15T10:11:34.694Z,7.47
2022-12-15T10:14:11.282Z,7.37
2022-12-15T10:16:50.165Z,4.92
2022-12-15T10:19:26.393Z,6.75
2022-12-15T10:22:00.659Z,6.92
2022-12-15T10:25:08.631Z,8.33
2022-12-15T10:27:17.605Z,6.25
2022-12-15T10:29:54.633Z,8.58
2022-12-15T10:32:36.720Z,8.58
2022-12-15T10:35:16.520Z,8.73
2022-12-15T10:37:50.075Z,9.35
2022-12-15T10:40:30.039Z,9.38
2022-12-15T10:43:04.767Z,7.20
2022-12-15T10:45:40.869Z,6.35
2022-12-15T10:48:22.259Z,10.38
2022-12-15T10:51:05.762Z,6.50
2022-12-15T10:53:43.945Z,7.67
2022-12-15T10:56:30.671Z,10.43
2022-12-15T10:59:01.353Z,8.58
2022-12-15T11:01:36.339Z,8.85
2022-12-15T11:04:26.361Z,8.55
2022-12-15T11:07:01.195Z,8.93
2022-12-15T11:09:38.369Z,8.23
2022-12-15T11:12:37.007Z,7.03
2022-12-15T11:15:35.814Z,6.92
2022-12-15T11:18:14.252Z,10.25
2022-12-15T11:20:50.868Z,7.58
2022-12-15T11:23:29.807Z,8.68
2022-12-15T11:26:07.300Z,9.93
2022-12-15T11:28:44.367Z,9.63
2022-12-15T11:31:23.069Z,9.93
2022-12-15T11:33:56.581Z,10.90
2022-12-15T11:36:40.791Z,8.20
2022-12-15T11:39:17.957Z,7.67
2022-12-15T11:41:57.453Z,7.25
2022-12-15T11:44:34.077Z,10.08
2022-12-15T11:47:12.186Z,8.73
2022-12-15T11:53:15.025Z,8.08
2022-12-15T11:55:53.577Z,6.70
2022-12-15T11:58:51.570Z,7.20
2022-12-15T12:01:34.882Z,8.03
2022-12-15T12:04:11.364Z,10.58
2022-12-15T12:06:47.724Z,7.00
2022-12-15T12:09:38.340Z,8.05
2022-12-15T12:12:19.743Z,10.18
2022-12-15T12:15:00.856Z,7.55
2022-12-15T12:17:41.574Z,10.05
2022-12-15T12:20:20.591Z,9.10
2022-12-15T12:22:59.216Z,6.97
2022-12-15T12:28:36.986Z,8.98
2022-12-15T12:31:14.750Z,7.70
2022-12-15T12:36:21.665Z,7.42
2022-12-15T12:38:56.859Z,9.00
2022-12-15T12:41:35.797Z,8.98
2022-12-15T12:44:14.169Z,14.35
2022-12-15T12:49:28.504Z,9.78
2022-12-15T12:52:04.456Z,7.03
2022-12-15T12:54:51.327Z,9.60
2022-12-15T12:57:37.868Z,8.45
2022-12-15T13:00:24.150Z,9.33
2022-12-15T13:03:18.090Z,10.30
2022-12-15T13:05:54.580Z,13.18
2022-12-15T13:08:52.362Z,8.50
2022-12-15T13:12:20.961Z,7.08
2022-12-15T13:17:52.855Z,10.40
2022-12-15T13:20:28.783Z,9.93
2022-12-15T13:26:27.567Z,11.03
2022-12-15T13:29:00.863Z,10.68
2022-12-15T13:31:49.048Z,9.48
2022-12-15T13:34:25.848Z,8.28
2022-12-15T13:37:01.180Z,7.55
2022-12-15T13:42:51.207Z,9.15
2022-12-15T13:45:44.951Z,10.70
2022-12-15T13:48:36.707Z,11.03
2022-12-15T13:51:23.421Z,9.33
2022-12-15T13:54:01.010Z,10.37
2022-12-15T13:59:39.386Z,10.20
2022-12-15T14:02:28.340Z,12.35
2022-12-15T14:05:17.632Z,12.13
2022-12-15T14:07:55.002Z,7.17
2022-12-15T14:10:31.283Z,9.70
2022-12-15T14:13:15.939Z,7.83
2022-12-15T14:15:50.778Z,9.75
2022-12-15T14:18:29.864Z,9.35
2022-12-15T14:21:05.499Z,11.60
2022-12-15T14:24:19.231Z,9.05
2022-12-15T14:26:20.398Z,9.55
2022-12-15T14:28:56.472Z,11.73
2022-12-15T14:31:31.409Z,8.05
2022-12-15T14:34:07.503Z,9.40
2022-12-15T14:36:43.600Z,7.75
2022-12-15T14:39:23.146Z,10.03
2022-12-15T14:42:01.370Z,8.18
2022-12-15T14:44:58.040Z,9.35
2022-12-15T14:47:43.093Z,7.12
2022-12-15T14:50:24.986Z,9.50
2022-12-15T15:00:34.898Z,10.18
2022-12-15T15:03:07.203Z,11.53
2022-12-15T15:05:59.168Z,9.35
2022-12-15T15:08:35.590Z,9.48
2022-12-15T15:11:24.024Z,9.75
2022-12-15T15:14:00.047Z,7.90
2022-12-15T15:16:33.486Z,8.85
2022-12-15T15:19:08.526Z,8.40
2022-12-15T15:21:41.603Z,10.58
2022-12-15T15:24:27.286Z,7.08
2022-12-15T15:27:26.351Z,7.05
2022-12-15T15:30:19.958Z,9.43
2022-12-15T15:32:58.897Z,9.28
2022-12-15T15:35:35.317Z,11.05
2022-12-15T15:38:13.327Z,7.25
2022-12-15T15:40:51.825Z,11.48
2022-12-15T15:43:25.557Z,10.03
2022-12-15T15:46:02.117Z,7.90
2022-12-15T15:48:38.554Z,11.38
2022-12-15T15:51:12.829Z,8.75
2022-12-15T15:53:46.760Z,11.53
2022-12-15T15:56:21.127Z,9.93
2022-12-15T15:58:54.679Z,9.80
2022-12-15T16:01:28.296Z,12.78
2022-12-15T16:04:01.947Z,11.97
2022-12-15T16:09:24.276Z,9.97
2022-12-15T16:12:00.694Z,9.68
2022-12-15T16:14:33.946Z,9.60
2022-12-15T16:17:11.048Z,11.22
2022-12-15T16:19:44.333Z,10.68
2022-12-15T16:22:19.368Z,7.62
2022-12-15T16:24:52.858Z,11.83
2022-12-15T16:27:26.160Z,12.80
2022-12-15T16:29:59.404Z,7.45
2022-12-15T16:32:34.493Z,10.00
2022-12-15T16:35:08.861Z,8.83
2022-12-15T16:37:46.754Z,9.00
2022-12-15T16:40:22.651Z,9.93
2022-12-15T16:42:58.680Z,10.32
2022-12-15T16:45:33.776Z,11.70
2022-12-15T16:48:07.359Z,8.43
2022-12-15T16:50:43.624Z,12.35
2022-12-15T16:53:20.508Z,9.85
2022-12-15T16:55:56.832Z,15.00
2022-12-15T16:58:32.335Z,6.97
2022-12-15T17:01:17.073Z,7.30
2022-12-15T17:03:51.910Z,10.18
2022-12-15T17:06:25.246Z,7.83
2022-12-15T17:08:59.582Z,8.58
2022-12-15T17:11:33.656Z,9.38
2022-12-15T17:16:58.748Z,10.88
2022-12-15T17:19:32.109Z,12.15
2022-12-15T17:22:09.947Z,10.23
2022-12-15T17:24:46.841Z,11.43
2022-12-15T17:27:28.032Z,12.75
2022-12-15T17:30:06.789Z,12.20
2022-12-15T17:32:46.018Z,9.75
2022-12-15T17:35:21.862Z,10.55
2022-12-15T17:37:56.351Z,8.38
2022-12-15T17:40:29.647Z,10.50
2022-12-15T17:43:04.211Z,10.32
2022-12-15T17:45:39.946Z,9.65
2022-12-15T17:48:15.926Z,9.45
2022-12-15T17:54:38.047Z,10.15
2022-12-15T17:57:13.487Z,10.13
2022-12-15T17:59:47.378Z,10.58
2022-12-15T18:02:20.740Z,12.98
2022-12-15T18:04:55.432Z,11.60
2022-12-15T18:07:31.599Z,10.20
2022-12-15T18:10:08.303Z,9.28
2022-12-15T18:12:41.490Z,16.15
2022-12-15T18:15:21.973Z,10.78
2022-12-15T18:17:55.249Z,8.73
2022-12-15T18:20:30.859Z,10.25
2022-12-15T18:23:04.013Z,9.15
2022-12-15T18:25:37.103Z,7.75
2022-12-15T18:28:18.459Z,11.78
2022-12-15T18:30:53.666Z,11.48
2022-12-15T18:33:27.578Z,10.35
2022-12-15T18:36:00.938Z,8.68
2022-12-15T18:38:34.414Z,9.13
2022-12-15T18:41:09.429Z,12.75
2022-12-15T18:43:43.746Z,10.48
2022-12-15T18:46:20.504Z,9.53
2022-12-15T18:48:58.978Z,10.72
2022-12-15T18:51:32.393Z,10.58
2022-12-15T18:54:26.710Z,10.93
2022-12-15T18:56:59.859Z,13.00
2022-12-15T18:59:33.346Z,8.90
2022-12-15T19:02:08.126Z,10.35
2022-12-15T19:04:41.439Z,11.50
2022-12-15T19:07:14.905Z,13.28
2022-12-15T19:09:47.992Z,14.50
2022-12-15T19:12:21.710Z,12.28
2022-12-15T19:14:55.369Z,11.15
2022-12-15T19:18:04.523Z,15.13
2022-12-15T19:23:20.159Z,11.68
2022-12-15T19:25:54.635Z,12.50
2022-12-15T19:28:27.983Z,9.83
2022-12-15T19:31:04.269Z,10.08
2022-12-15T19:33:37.514Z,12.55
2022-12-15T19:36:16.725Z,13.40
2022-12-15T19:38:51.824Z,13.32
2022-12-15T19:41:29.743Z,10.35
2022-12-15T19:44:08.440Z,12.10
2022-12-15T19:46:47.682Z,14.75
2022-12-15T19:49:28.101Z,12.15
2022-12-15T19:52:03.452Z,13.32
2022-12-15T19:54:38.139Z,16.27
2022-12-15T19:57:14.343Z,14.33
2022-12-15T19:59:47.867Z,15.08
2022-12-15T20:02:22.441Z,13.43
2022-12-15T20:04:58.673Z,15.53
2022-12-15T20:07:41.216Z,14.13
2022-12-15T20:10:27.859Z,14.98
2022-12-15T20:12:58.726Z,13.53
2022-12-15T20:15:32.109Z,13.22
2022-12-15T20:18:08.307Z,10.20
2022-12-15T20:20:47.183Z,11.78
2022-12-15T20:23:26.604Z,12.55
2022-12-15T20:26:02.986Z,16.75
2022-12-15T20:28:38.794Z,17.52
2022-12-15T20:31:16.293Z,15.25
2022-12-15T20:33:50.505Z,14.35
2022-12-15T20:36:26.741Z,14.35
2022-12-15T20:39:02.387Z,14.95
2022-12-15T20:41:40.344Z,16.97
2022-12-15T20:44:15.400Z,15.88
2022-12-15T20:46:49.347Z,17.48
2022-12-15T20:49:24.293Z,18.90
2022-12-15T20:51:58.256Z,15.03
2022-12-15T20:54:31.586Z,12.07
2022-12-15T20:57:05.414Z,16.23
2022-12-15T20:59:39.091Z,11.00
2022-12-15T21:02:21.011Z,20.90
2022-12-15T21:04:55.921Z,12.93
2022-12-15T21:07:29.315Z,17.20
2022-12-15T21:10:02.945Z,14.23
2022-12-15T21:12:37.042Z,19.45
2022-12-15T21:15:17.173Z,15.48
2022-12-15T21:18:16.991Z,19.82
2022-12-15T21:23:02.641Z,14.18
2022-12-15T21:25:36.290Z,16.67
2022-12-15T21:28:13.407Z,16.85
2022-12-15T21:30:46.826Z,18.92
2022-12-15T21:33:20.878Z,17.85
2022-12-15T21:35:54.219Z,15.08
2022-12-15T21:38:33.923Z,16.97
2022-12-15T21:41:10.942Z,14.70
2022-12-15T21:43:47.650Z,16.70
2022-12-15T21:46:27.787Z,17.20
2022-12-15T21:49:18.501Z,14.00
2022-12-15T21:51:55.127Z,14.43
2022-12-15T21:54:31.637Z,10.90
2022-12-15T21:57:05.351Z,16.48
2022-12-15T21:59:38.700Z,16.12
2022-12-15T22:02:25.280Z,13.55
2022-12-15T22:04:58.738Z,13.30
2022-12-15T22:07:32.776Z,16.12
2022-12-15T22:10:07.239Z,12.58
2022-12-15T22:12:42.278Z,12.50
2022-12-15T22:18:01.702Z,14.05
2022-12-15T22:20:34.863Z,15.80
2022-12-15T22:23:08.281Z,16.57
2022-12-15T22:25:41.420Z,12.37
2022-12-15T22:28:22.661Z,15.53
2022-12-15T22:30:57.263Z,17.15
2022-12-15T22:33:31.901Z,13.35
2022-12-15T22:36:05.272Z,14.68
2022-12-15T22:38:38.384Z,16.65
2022-12-15T22:41:18.826Z,14.55
2022-12-15T22:43:54.424Z,14.55
2022-12-15T22:46:28.248Z,15.43
2022-12-15T22:49:01.628Z,14.03
2022-12-15T22:51:37.245Z,15.63
2022-12-15T22:54:19.883Z,13.32
2022-12-15T22:56:56.226Z,13.62
2022-12-15T22:59:32.443Z,17.98
2022-12-15T23:02:06.391Z,11.83
2022-12-15T23:04:39.811Z,12.58
2022-12-15T23:07:13.103Z,11.22
2022-12-15T23:09:46.386Z,17.30
2022-12-15T23:12:22.350Z,14.20
2022-12-15T23:15:21.786Z,13.72
2022-12-15T23:17:55.268Z,13.45
2022-12-15T23:20:28.446Z,15.70
2022-12-15T23:23:03.503Z,13.65
2022-12-15T23:25:37.264Z,12.60
2022-12-15T23:28:10.771Z,12.80
2022-12-15T23:30:43.997Z,15.40
2022-12-15T23:33:17.533Z,14.80
2022-12-15T23:35:51.139Z,11.88
2022-12-15T23:38:25.761Z,12.75
2022-12-15T23:40:59.371Z,13.05
2022-12-15T23:43:35.498Z,14.90
2022-12-15T23:46:09.805Z,12.18
2022-12-15T23:48:45.607Z,12.93
2022-12-15T23:51:20.446Z,11.35
2022-12-15T23:53:53.735Z,11.55
2022-12-15T23:56:28.108Z,10.55
2022-12-15T23:59:02.162Z,10.63
